القامشلي, سوريا

02:46 AM EEST on êèنêè 24, 2014 (GMT +0300)
Batman Air Base (LTCJ) Elev 1821 ft | 37.93 °N, 41.12 °E | Change Station

Current weather conditions updated 26 minutes ago

Clear
صافية
73 °F
Feels Like 73 °F
N
1
ريح متغير ريح from متغير

Today is forecast to be Warmer than yesterday.

هذا اليوم
High -- | Low -- °F
--% Chance of Precip.
Yesterday
High -- | Low -- °F
Precip. -- في
5:13 AM 7:29 PM
الهلال الأخير, 8% visible
الضغط 29.68 في
وضوح الرؤية -9999.0 أميال
سحابات
نقطة الندى 61 °F
الرطوبة 65%
Rainfall 0.00 في
عمق الثلج Not available.
الأشعة فوق البنفسجية Not available.
Pollen Not available.
جودة الهواء Not available.
Flu Activity Not available.
METAR LTCJ 232320Z VRB01KT CAVOK 23/16 Q1005 RMK RWY20 00000KT

More Conditions Fewer Conditions

الضغط 29.68 في
وضوح الرؤية -9999.0 أميال
سحابات
نقطة الندى 61 °F
الرطوبة 65%
Rainfall 0.00 في
عمق الثلج Not available.
الأشعة فوق البنفسجية Not available.
Pollen Not available.
جودة الهواء Not available.
Flu Activity Not available.
METAR LTCJ 232320Z VRB01KT CAVOK 23/16 Q1005 RMK RWY20 00000KT

More Conditions Fewer Conditions

10-Day Weather Forecast

Almanac

علم الفلك

Jul. 24, 2014 Rise Set
Actual Time 5:13 AM EEST 7:29 PM EEST
Civil Twilight 4:44 AM EEST 7:58 PM EEST
Nautical Twilight 4:08 AM EEST 8:34 PM EEST
Astronomical Twilight 3:28 AM EEST 9:13 PM EEST
قمر 3:02 AM EEST (7/24) 5:28 PM EEST (7/24)
Length Of Visible Light 15h 14m
طول الیوم
14h 15m
Tomorrow will be 1m 32s shorter.
الهلال الأخير, 8% of the Moon is Illuminated
Jul 23
الهلال الأخير
Jul 26
New
Aug 3
الربع الاول
Aug 10
بدر
Aug 17
الربع الآخر

Yesterday's Extremes

Country Highs Country Lows

Community

WunderPhotos

Upload Photos

1,736,817 photos uploaded!

Nearby

جودة الهواء

Not available.

عمق الثلج

Not available.

Earthquake Activity

City Distance Mag. Time & Date
No recent earthquake activity has been reported nearby.
Minimum magnitude displayed is 2.5.

Coastal Water Temperatures

مكان درجات الحرارة
No Stations Reporting

Nearby Weather Stations

There are no personal weather stations in this area.